Accueil
METAR-TAF:

METAR-TAF

Aéroports :

Burlington-Alamance Regional Airport

Burlington, Caroline du Nord, États-Unis

latitude: 36-02-52N, longitude: 079-28-26W, altitude: 188 m

Observation

Le bulletin a été fait il y a 57 minutes, à 21:54 UTC
Vent 7 kt de ouest/sud-ouest
Température 10°C
Humidité 34%
Pression 1013 hPa
Visibilité: 16.1 km
Nuages fragmentés à une hauteur de 6500 ft
Ciel couvert à une hauteur de 8000 ft

METAR: KBUY 282154Z AUTO 24007KT 10SM BKN065 OVC080 10/M05 A2992 RMK AO2 SLP134 T01001050

Heure: 17:51 (22:51 UTC)


TAF: absent

Observations et prévisions météorologiques de plus de 4000 aéroports (messages METAR et TAF).

Les stations disponibles sont représentées par des disques jaunes et rouges sur la carte.

Passer la souris dessus pour voir le nom de la station.

Cliquer dessus pour voir les observations et prévisions météorologiques.

Pour changer de carte: cliquez sur les boutons verts avec une croix noire pour zoomer, sur le bouton vert avec un tiret pour effectuer un zoom arrière, ou sur les flèches vertes pour les cartes adjacentes.


METAR-TAF: